Time;durP1;ratioP1;P1;durP2;ratioP2;P2;SDS_P1;SDS_P2;PMS_P1;PMS_P2;Temp;Humidity;BMP_temperature;BMP_pressure;BME280_temperature;BME280_humidity;BME280_pressure;Samples;Min_cycle;Max_cycle;Signal;HPM_P1;HPM_P2
2022/09/19 00:01:51;;;;;;;15.37;2.70;;;10.50;99.90;;;;;;4976939;28;20223;-71
2022/09/19 00:04:22;;;;;;;13.90;2.70;;;10.60;99.90;;;;;;4997801;28;20239;-72
2022/09/19 00:06:53;;;;;;;15.83;3.07;;;10.50;99.90;;;;;;4974020;28;20226;-72
2022/09/19 00:09:23;;;;;;;11.17;2.43;;;10.50;99.90;;;;;;4997631;28;20636;-73
2022/09/19 00:11:52;;;;;;;17.03;2.90;;;10.50;99.90;;;;;;4986910;28;20670;-71
2022/09/19 00:14:24;;;;;;;12.20;3.90;;;10.40;99.90;;;;;;4978094;28;20691;-71
2022/09/19 00:16:56;;;;;;;12.77;2.40;;;10.40;99.90;;;;;;4994171;28;20218;-71
2022/09/19 00:19:24;;;;;;;26.73;3.30;;;10.30;99.90;;;;;;4995015;28;20235;-72
2022/09/19 00:21:55;;;;;;;20.37;3.13;;;10.30;99.90;;;;;;4998367;28;20209;-72
2022/09/19 00:27:09;;;;;;;16.60;3.10;;;10.30;99.90;;;;;;4997980;28;20204;-71
2022/09/19 00:29:38;;;;;;;16.73;3.27;;;10.20;99.90;;;;;;4998304;28;20272;-72
2022/09/19 00:32:12;;;;;;;15.70;2.43;;;10.30;99.90;;;;;;4999551;28;20233;-72
2022/09/19 00:34:47;;;;;;;19.13;2.90;;;10.30;99.90;;;;;;4978013;28;20197;-72
2022/09/19 00:37:15;;;;;;;11.50;2.97;;;10.30;99.90;;;;;;4988337;28;20204;-72
2022/09/19 00:39:42;;;;;;;11.57;2.80;;;10.30;99.90;;;;;;4993541;28;20223;-71
2022/09/19 00:42:16;;;;;;;21.17;2.80;;;10.40;99.90;;;;;;4997943;28;20213;-72
2022/09/19 00:44:43;;;;;;;15.03;2.53;;;10.40;99.90;;;;;;4997033;28;20216;-72
2022/09/19 00:47:17;;;;;;;14.50;3.03;;;10.40;99.90;;;;;;4992938;28;20233;-70
2022/09/19 00:49:47;;;;;;;13.27;2.80;;;10.40;99.90;;;;;;5000346;28;20733;-72
2022/09/19 00:52:26;;;;;;;19.60;3.07;;;10.40;99.90;;;;;;4993653;28;21024;-72
2022/09/19 00:54:53;;;;;;;14.40;3.77;;;10.40;99.90;;;;;;4995293;28;20223;-73
2022/09/19 00:57:23;;;;;;;15.20;2.73;;;10.40;99.90;;;;;;4990598;28;20247;-72
2022/09/19 00:59:50;;;;;;;11.93;3.17;;;10.40;99.90;;;;;;4993117;28;20238;-72
2022/09/19 01:02:21;;;;;;;18.03;3.10;;;10.40;99.90;;;;;;4996938;28;20212;-72
2022/09/19 01:04:47;;;;;;;19.47;3.30;;;10.40;99.90;;;;;;4999067;28;20307;-71
2022/09/19 01:07:41;;;;;;;14.87;2.77;;;10.40;99.90;;;;;;4994020;28;20284;-72
2022/09/19 01:10:59;;;;;;;15.17;2.53;;;10.40;99.90;;;;;;4996239;28;20254;-72
2022/09/19 01:13:47;;;;;;;19.73;3.30;;;10.40;99.90;;;;;;4908004;29;20233;-72
2022/09/19 01:16:24;;;;;;;14.23;2.90;;;10.40;99.90;;;;;;4997909;28;20237;-71
2022/09/19 01:19:18;;;;;;;19.67;2.90;;;10.40;99.90;;;;;;4997710;28;20227;-71
2022/09/19 01:22:11;;;;;;;19.27;4.07;;;10.40;99.90;;;;;;4991399;28;20243;-72
2022/09/19 01:24:54;;;;;;;9.53;2.63;;;10.50;99.90;;;;;;4994315;28;20207;-72
2022/09/19 01:27:40;;;;;;;15.57;3.00;;;10.50;99.90;;;;;;4995661;28;20298;-72
2022/09/19 01:30:09;;;;;;;17.40;3.00;;;10.50;99.90;;;;;;4997778;28;20230;-72
2022/09/19 01:32:52;;;;;;;17.87;3.10;;;10.50;99.90;;;;;;4988239;28;20625;-72
2022/09/19 01:35:28;;;;;;;11.80;2.60;;;10.50;99.90;;;;;;4990671;28;20242;-72
2022/09/19 01:38:22;;;;;;;17.43;3.40;;;10.50;99.90;;;;;;4997597;28;20281;-72
2022/09/19 01:40:51;;;;;;;14.30;2.50;;;10.50;99.90;;;;;;4991487;28;20220;-72
2022/09/19 01:43:19;;;;;;;18.93;3.00;;;10.50;99.90;;;;;;4996205;28;20245;-72
2022/09/19 01:45:47;;;;;;;15.37;2.83;;;10.50;99.90;;;;;;4992742;28;20304;-72
2022/09/19 01:48:28;;;;;;;12.53;2.90;;;10.50;99.90;;;;;;4998398;28;20805;-72
2022/09/19 01:51:00;;;;;;;17.90;2.80;;;10.40;99.90;;;;;;4998120;28;20212;-72
2022/09/19 01:53:58;;;;;;;12.23;4.73;;;10.40;99.90;;;;;;4999417;28;20263;-72
2022/09/19 01:57:11;;;;;;;16.10;2.90;;;10.40;99.90;;;;;;4993130;28;20232;-72
2022/09/19 02:00:02;;;;;;;17.07;3.03;;;10.40;99.90;;;;;;5002278;28;20222;-72
2022/09/19 02:02:48;;;;;;;18.00;3.57;;;10.40;99.90;;;;;;5001045;28;20325;-72
2022/09/19 02:05:49;;;;;;;18.27;3.20;;;10.40;99.90;;;;;;5001617;28;20225;-72
2022/09/19 02:08:35;;;;;;;19.73;3.23;;;10.40;99.90;;;;;;4997944;28;20212;-72
2022/09/19 02:11:11;;;;;;;21.37;3.70;;;10.40;99.90;;;;;;5000108;28;20246;-71
2022/09/19 02:13:44;;;;;;;20.23;3.30;;;10.40;99.90;;;;;;4994391;28;20243;-72
2022/09/19 02:16:16;;;;;;;16.17;2.53;;;10.40;99.90;;;;;;4998139;28;20768;-71
2022/09/19 02:18:53;;;;;;;18.20;3.17;;;10.40;99.90;;;;;;5001303;28;20209;-72
2022/09/19 02:21:50;;;;;;;15.13;3.37;;;10.40;99.90;;;;;;4999003;28;20244;-73
2022/09/19 02:24:23;;;;;;;16.27;3.20;;;10.40;99.90;;;;;;4996494;28;20315;-72
2022/09/19 02:26:52;;;;;;;11.73;2.80;;;10.40;99.90;;;;;;4998342;28;20203;-72
2022/09/19 02:29:28;;;;;;;20.77;3.40;;;10.40;99.90;;;;;;4994822;28;20326;-71
2022/09/19 02:31:56;;;;;;;19.40;3.43;;;10.40;99.90;;;;;;4998774;28;20256;-72
2022/09/19 02:34:24;;;;;;;19.53;3.63;;;10.40;99.90;;;;;;4997060;28;20231;-71
2022/09/19 02:37:00;;;;;;;17.17;4.10;;;10.50;99.90;;;;;;5001048;28;20219;-71
2022/09/19 02:39:42;;;;;;;12.13;3.00;;;10.50;99.90;;;;;;4962776;28;20328;-71
2022/09/19 02:42:20;;;;;;;14.07;3.60;;;10.50;99.90;;;;;;4986014;28;20209;-71
2022/09/19 02:45:06;;;;;;;15.47;3.10;;;10.50;99.90;;;;;;5001144;28;20205;-72
2022/09/19 02:47:52;;;;;;;14.20;2.70;;;10.50;99.90;;;;;;4992424;28;20752;-73
2022/09/19 02:50:33;;;;;;;18.70;4.27;;;10.50;99.90;;;;;;4979249;28;20330;-72
2022/09/19 02:53:04;;;;;;;15.60;2.67;;;10.50;99.90;;;;;;4993664;28;20301;-72
2022/09/19 02:55:39;;;;;;;19.97;3.13;;;10.50;99.90;;;;;;4977781;28;20210;-71
2022/09/19 02:58:06;;;;;;;16.63;2.77;;;10.50;99.90;;;;;;4999524;28;20907;-72
2022/09/19 03:00:38;;;;;;;15.57;3.93;;;10.50;99.90;;;;;;4998495;28;20829;-72
2022/09/19 03:06:07;;;;;;;12.83;2.80;;;10.60;99.90;;;;;;5000765;28;20224;-71
2022/09/19 03:08:36;;;;;;;16.57;3.33;;;10.60;99.90;;;;;;5002173;28;20221;-71
2022/09/19 03:11:14;;;;;;;15.40;3.60;;;10.60;99.90;;;;;;5000726;28;20209;-72
2022/09/19 03:13:42;;;;;;;12.07;4.47;;;10.60;99.90;;;;;;5000109;28;20272;-72
2022/09/19 03:16:14;;;;;;;17.60;3.20;;;10.70;99.90;;;;;;4994505;28;20215;-71
2022/09/19 03:18:48;;;;;;;9.47;2.53;;;10.70;99.90;;;;;;4997584;28;20708;-71
2022/09/19 03:21:21;;;;;;;19.63;2.70;;;10.70;99.90;;;;;;4998324;28;20321;-72
2022/09/19 03:23:51;;;;;;;17.03;2.87;;;10.70;99.90;;;;;;5000184;28;20237;-72
2022/09/19 03:26:25;;;;;;;15.27;3.00;;;10.70;99.90;;;;;;4978185;28;20356;-71
2022/09/19 03:28:54;;;;;;;14.80;3.20;;;10.70;99.90;;;;;;4991319;28;20563;-72
2022/09/19 03:31:22;;;;;;;17.97;3.63;;;10.70;99.90;;;;;;4999322;28;20266;-72
2022/09/19 03:33:51;;;;;;;25.10;4.73;;;10.70;99.90;;;;;;4993911;28;20209;-72
2022/09/19 03:36:18;;;;;;;18.10;3.13;;;10.70;99.90;;;;;;4995682;28;20304;-72
2022/09/19 03:38:46;;;;;;;25.43;3.47;;;10.70;99.90;;;;;;4974382;28;20310;-72
2022/09/19 03:41:14;;;;;;;17.57;3.70;;;10.70;99.90;;;;;;5004041;28;20232;-72
2022/09/19 03:43:43;;;;;;;13.33;2.80;;;10.70;99.90;;;;;;4996454;28;20613;-71
2022/09/19 03:46:13;;;;;;;26.17;3.67;;;10.70;99.90;;;;;;4998208;28;20468;-72
2022/09/19 03:48:41;;;;;;;9.00;2.33;;;10.70;99.90;;;;;;4996183;28;20219;-72
2022/09/19 03:51:08;;;;;;;15.17;3.00;;;10.60;99.90;;;;;;4997892;28;20210;-73
2022/09/19 03:53:35;;;;;;;19.27;3.50;;;10.60;99.90;;;;;;4996993;28;20242;-71
2022/09/19 03:56:02;;;;;;;19.40;3.40;;;10.60;99.90;;;;;;4991079;28;20298;-71
2022/09/19 03:58:30;;;;;;;14.07;2.60;;;10.60;99.90;;;;;;4995893;28;20233;-72
2022/09/19 04:00:57;;;;;;;16.03;2.63;;;10.60;99.90;;;;;;4982008;28;20383;-72
2022/09/19 04:03:24;;;;;;;14.43;3.10;;;10.70;99.90;;;;;;4997655;28;20216;-71
2022/09/19 04:05:51;;;;;;;18.00;2.83;;;10.60;99.90;;;;;;5000415;28;20209;-71
2022/09/19 04:08:19;;;;;;;11.73;3.00;;;10.70;99.90;;;;;;4993176;28;20197;-72
2022/09/19 04:10:47;;;;;;;10.97;2.60;;;10.60;99.90;;;;;;4990253;28;20210;-71
2022/09/19 04:13:14;;;;;;;20.67;2.97;;;10.70;99.90;;;;;;4991968;28;20253;-72
2022/09/19 04:15:41;;;;;;;17.53;2.20;;;10.60;99.90;;;;;;4998255;28;20301;-72
2022/09/19 04:18:08;;;;;;;21.83;4.07;;;10.60;99.90;;;;;;4998739;28;20216;-70
2022/09/19 04:20:35;;;;;;;18.27;2.97;;;10.60;99.90;;;;;;4961178;28;20321;-71
2022/09/19 04:23:02;;;;;;;12.80;2.60;;;10.60;99.90;;;;;;4993459;28;20930;-73
2022/09/19 04:25:35;;;;;;;15.03;2.60;;;10.60;99.90;;;;;;4994623;28;20293;-70
2022/09/19 04:28:07;;;;;;;13.97;2.60;;;10.50;99.90;;;;;;4996809;28;20261;-71
2022/09/19 04:30:35;;;;;;;13.40;2.47;;;10.50;99.90;;;;;;4975634;28;20280;-71
2022/09/19 04:33:06;;;;;;;10.27;2.57;;;10.50;99.90;;;;;;5000105;28;20274;-72
2022/09/19 04:35:35;;;;;;;9.10;2.73;;;10.50;99.90;;;;;;4991944;28;20209;-72
2022/09/19 04:38:06;;;;;;;11.10;2.10;;;10.50;99.90;;;;;;4991412;28;20849;-72
2022/09/19 04:40:48;;;;;;;10.47;2.33;;;10.60;99.90;;;;;;4975525;28;20317;-71
2022/09/19 04:43:18;;;;;;;8.47;2.23;;;10.60;99.90;;;;;;4995283;28;20292;-72
2022/09/19 04:45:48;;;;;;;8.43;2.40;;;10.60;99.90;;;;;;4968974;28;20241;-72
2022/09/19 04:48:16;;;;;;;11.83;2.20;;;10.60;99.90;;;;;;4983199;28;20563;-71
2022/09/19 04:50:50;;;;;;;9.70;2.10;;;10.70;99.90;;;;;;4993649;28;20269;-71
2022/09/19 04:53:19;;;;;;;13.00;2.60;;;10.70;99.90;;;;;;4997260;28;20232;-72
2022/09/19 04:55:54;;;;;;;9.43;2.40;;;10.70;99.90;;;;;;5001051;28;20222;-71
2022/09/19 04:58:22;;;;;;;16.10;2.73;;;10.70;99.90;;;;;;4992391;28;20259;-71
2022/09/19 05:00:54;;;;;;;17.67;2.50;;;10.70;99.90;;;;;;4990502;28;20285;-71
2022/09/19 05:03:25;;;;;;;14.00;2.27;;;10.70;99.90;;;;;;4981203;28;20322;-72
2022/09/19 05:05:53;;;;;;;11.67;2.07;;;10.70;99.90;;;;;;4995613;28;20310;-72
2022/09/19 05:08:26;;;;;;;12.67;2.17;;;10.70;99.90;;;;;;4996736;28;20207;-73
2022/09/19 05:10:57;;;;;;;15.53;2.63;;;10.80;99.90;;;;;;4978693;28;20216;-71
2022/09/19 05:13:32;;;;;;;18.67;2.53;;;10.80;99.90;;;;;;4995543;28;20303;-72
2022/09/19 05:16:00;;;;;;;14.17;2.77;;;10.80;99.90;;;;;;4962512;28;20249;-71
2022/09/19 05:18:28;;;;;;;15.77;2.50;;;10.90;99.90;;;;;;4996733;28;20207;-72
2022/09/19 05:20:56;;;;;;;14.53;2.13;;;10.90;99.90;;;;;;4998266;28;20322;-72
2022/09/19 05:23:24;;;;;;;17.23;2.57;;;11.10;99.90;;;;;;4995134;28;20216;-72
2022/09/19 05:25:53;;;;;;;11.70;2.60;;;11.00;99.90;;;;;;4997211;28;20225;-72
2022/09/19 05:28:27;;;;;;;9.77;2.50;;;11.20;99.90;;;;;;4997891;28;20237;-71
2022/09/19 05:30:55;;;;;;;9.03;2.20;;;11.20;99.90;;;;;;5001728;28;20240;-71
2022/09/19 05:33:26;;;;;;;10.67;2.40;;;11.20;99.90;;;;;;4996959;28;20211;-72
2022/09/19 05:35:55;;;;;;;10.73;2.13;;;11.30;99.90;;;;;;4999129;28;20415;-72
2022/09/19 05:38:23;;;;;;;14.97;2.13;;;11.20;99.90;;;;;;4995862;28;20253;-73
2022/09/19 05:40:52;;;;;;;13.33;2.63;;;11.30;99.90;;;;;;4999902;28;20233;-72
2022/09/19 05:43:19;;;;;;;4.30;1.70;;;11.30;99.90;;;;;;4982075;28;20207;-72
2022/09/19 05:45:46;;;;;;;7.37;2.10;;;11.30;99.90;;;;;;5001607;28;20250;-71
2022/09/19 05:48:14;;;;;;;12.23;2.23;;;11.30;99.90;;;;;;4994494;28;20200;-72
2022/09/19 05:50:43;;;;;;;17.57;2.17;;;11.30;99.90;;;;;;4997111;28;20842;-73
2022/09/19 05:55:56;;;;;;;17.70;3.00;;;11.30;99.90;;;;;;4994208;28;20349;-73
2022/09/19 05:58:24;;;;;;;11.60;2.33;;;11.30;99.90;;;;;;4998494;28;20211;-72
2022/09/19 06:00:51;;;;;;;8.70;2.37;;;11.30;99.90;;;;;;5000162;28;20534;-71
2022/09/19 06:03:22;;;;;;;12.07;2.43;;;11.40;99.90;;;;;;4981266;28;20609;-73
2022/09/19 06:05:55;;;;;;;13.50;2.73;;;11.40;99.90;;;;;;5000410;28;20221;-73
2022/09/19 06:08:22;;;;;;;13.30;2.43;;;11.40;99.90;;;;;;4996358;28;20207;-72
2022/09/19 06:10:49;;;;;;;13.13;3.20;;;11.50;99.90;;;;;;5004059;28;20829;-72
2022/09/19 06:13:19;;;;;;;11.90;2.57;;;11.50;99.90;;;;;;5000144;28;20223;-72
2022/09/19 06:15:46;;;;;;;12.77;2.53;;;11.50;99.90;;;;;;4998267;28;20784;-74
2022/09/19 06:18:15;;;;;;;8.80;2.17;;;11.60;99.90;;;;;;5000283;28;20218;-72
2022/09/19 06:20:43;;;;;;;14.87;2.30;;;11.60;99.90;;;;;;4983491;28;20769;-72
2022/09/19 06:23:11;;;;;;;10.07;2.37;;;11.70;99.90;;;;;;4992033;28;20283;-72
2022/09/19 06:25:39;;;;;;;13.87;2.53;;;11.70;99.90;;;;;;5000435;28;20671;-71
2022/09/19 06:28:10;;;;;;;9.80;2.73;;;11.80;99.90;;;;;;4983730;28;20679;-72
2022/09/19 06:30:38;;;;;;;9.40;2.50;;;11.90;99.90;;;;;;5000202;28;20300;-71
2022/09/19 06:33:06;;;;;;;14.03;2.70;;;12.10;99.90;;;;;;4998382;28;20223;-72
2022/09/19 06:35:34;;;;;;;11.30;2.30;;;12.20;99.90;;;;;;4995629;28;20284;-73
2022/09/19 06:38:04;;;;;;;13.27;2.47;;;12.50;99.90;;;;;;5000683;28;20209;-73
2022/09/19 06:40:31;;;;;;;10.83;2.10;;;12.60;99.90;;;;;;4999437;28;20605;-71
2022/09/19 06:43:01;;;;;;;10.60;2.10;;;12.70;99.90;;;;;;4998214;28;20715;-73
2022/09/19 06:45:37;;;;;;;10.27;2.10;;;12.80;99.90;;;;;;4982478;28;20329;-74
2022/09/19 06:48:05;;;;;;;10.37;2.97;;;12.90;99.90;;;;;;5000748;28;20261;-72
2022/09/19 06:50:32;;;;;;;10.23;2.30;;;12.90;99.90;;;;;;4981920;28;20207;-73
2022/09/19 06:52:59;;;;;;;8.53;1.70;;;13.10;99.90;;;;;;5000248;28;20207;-73
2022/09/19 06:55:28;;;;;;;10.63;1.70;;;13.30;99.90;;;;;;4998383;28;20221;-72
2022/09/19 06:57:58;;;;;;;6.10;1.47;;;13.40;99.90;;;;;;4998054;28;20744;-73
2022/09/19 07:00:30;;;;;;;7.90;2.17;;;13.80;99.90;;;;;;4995338;28;20699;-73
2022/09/19 07:03:05;;;;;;;4.33;1.30;;;13.80;99.90;;;;;;4980189;28;20341;-73
2022/09/19 07:05:35;;;;;;;11.33;2.67;;;13.90;99.90;;;;;;4999734;28;20244;-72
2022/09/19 07:08:02;;;;;;;10.43;1.87;;;13.90;99.90;;;;;;4996854;28;20211;-73
2022/09/19 07:10:29;;;;;;;8.73;1.57;;;14.10;99.90;;;;;;4999126;28;20301;-72
2022/09/19 07:13:01;;;;;;;8.50;2.47;;;14.10;99.90;;;;;;4999909;28;20214;-72
2022/09/19 07:15:33;;;;;;;8.70;2.10;;;14.10;99.90;;;;;;4995398;28;20623;-72
2022/09/19 07:18:01;;;;;;;7.67;1.60;;;14.10;99.90;;;;;;4997482;28;20223;-72
2022/09/19 07:20:29;;;;;;;6.87;1.53;;;14.20;99.90;;;;;;5001121;28;20665;-72
2022/09/19 07:23:04;;;;;;;10.17;1.90;;;14.40;99.90;;;;;;4996805;28;20269;-73
2022/09/19 07:25:37;;;;;;;11.43;1.87;;;14.90;99.90;;;;;;5002933;28;20221;-73
2022/09/19 07:28:06;;;;;;;8.80;1.88;;;15.50;99.90;;;;;;4994237;28;20235;-72
2022/09/19 07:30:35;;;;;;;8.70;1.60;;;16.00;99.90;;;;;;4999284;28;20231;-74
2022/09/19 07:33:04;;;;;;;9.70;1.30;;;16.30;99.90;;;;;;5000687;28;20369;-73
2022/09/19 07:35:35;;;;;;;7.07;1.42;;;16.50;99.90;;;;;;4996383;28;20283;-72
2022/09/19 07:38:03;;;;;;;7.45;1.55;;;16.40;99.90;;;;;;4999737;28;20309;-74
2022/09/19 07:40:33;;;;;;;7.72;1.63;;;16.10;99.90;;;;;;4998597;28;20763;-73
2022/09/19 07:43:04;;;;;;;10.45;2.08;;;16.00;99.90;;;;;;4996850;28;20226;-72
2022/09/19 07:45:36;;;;;;;9.25;2.08;;;16.00;99.90;;;;;;4979672;28;20656;-73
2022/09/19 07:48:04;;;;;;;11.90;2.03;;;16.00;99.90;;;;;;4993742;28;20219;-72
2022/09/19 07:50:31;;;;;;;9.70;2.33;;;16.00;99.90;;;;;;4980692;28;20291;-72
2022/09/19 07:53:10;;;;;;;8.13;1.92;;;15.90;99.90;;;;;;4997003;28;20261;-73
2022/09/19 07:55:37;;;;;;;7.55;1.70;;;15.70;99.90;;;;;;4997413;28;20856;-73
2022/09/19 07:58:05;;;;;;;7.75;1.60;;;15.50;99.90;;;;;;4981463;28;20329;-72
2022/09/19 08:00:35;;;;;;;10.32;1.67;;;15.40;99.90;;;;;;4998461;28;20230;-73
2022/09/19 08:03:05;;;;;;;7.60;1.58;;;15.30;99.90;;;;;;4993582;28;20211;-73
2022/09/19 08:05:34;;;;;;;11.88;2.15;;;15.30;99.90;;;;;;4996694;28;20298;-73
2022/09/19 08:08:01;;;;;;;8.05;1.92;;;15.40;99.90;;;;;;4993326;28;20686;-73
2022/09/19 08:10:30;;;;;;;5.97;1.55;;;15.90;99.90;;;;;;4997646;28;20617;-73
2022/09/19 08:13:02;;;;;;;10.70;1.65;;;16.40;99.90;;;;;;4999602;28;20555;-73
2022/09/19 08:15:30;;;;;;;8.05;1.67;;;17.00;99.90;;;;;;4993469;28;20225;-73
2022/09/19 08:18:09;;;;;;;6.47;1.40;;;17.20;99.90;;;;;;4999237;28;20223;-72
2022/09/19 08:20:36;;;;;;;7.15;1.67;;;17.20;99.90;;;;;;4996518;28;20330;-73
2022/09/19 08:23:15;;;;;;;7.10;1.70;;;17.20;99.90;;;;;;4998405;28;20738;-74
2022/09/19 08:25:46;;;;;;;6.38;2.05;;;17.00;99.90;;;;;;5001666;28;20228;-74
2022/09/19 08:28:16;;;;;;;5.00;1.25;;;17.00;99.90;;;;;;4998365;28;20674;-73
2022/09/19 08:30:43;;;;;;;4.97;1.17;;;16.90;99.90;;;;;;4993989;28;20235;-74
2022/09/19 08:33:11;;;;;;;9.05;1.40;;;17.10;99.90;;;;;;4998822;28;20211;-74
2022/09/19 08:35:41;;;;;;;7.30;1.65;;;17.40;99.90;;;;;;4995530;28;20290;-74
2022/09/19 08:38:11;;;;;;;10.35;1.60;;;17.80;99.90;;;;;;4980231;28;20218;-73
2022/09/19 08:40:43;;;;;;;7.70;1.38;;;18.20;99.90;;;;;;4998060;28;20335;-74
2022/09/19 08:43:22;;;;;;;4.70;1.65;;;18.30;99.90;;;;;;4998461;28;20686;-73
2022/09/19 08:46:05;;;;;;;7.55;1.92;;;18.20;99.90;;;;;;4995670;28;20207;-73
2022/09/19 08:48:38;;;;;;;6.00;1.50;;;17.90;99.90;;;;;;4995661;28;20217;-73
2022/09/19 08:51:12;;;;;;;7.40;1.70;;;17.70;99.90;;;;;;4999448;28;20206;-74
2022/09/19 08:53:44;;;;;;;10.07;1.45;;;17.40;99.90;;;;;;4996584;28;20334;-73
2022/09/19 08:56:13;;;;;;;6.65;1.27;;;17.20;99.90;;;;;;4993629;28;20211;-74
2022/09/19 08:58:46;;;;;;;5.55;1.58;;;17.00;99.90;;;;;;4997520;28;20215;-74
2022/09/19 09:01:15;;;;;;;5.10;1.20;;;16.90;99.90;;;;;;5000240;28;20289;-74
2022/09/19 09:03:54;;;;;;;9.88;1.55;;;16.80;99.90;;;;;;5005238;28;20245;-74
2022/09/19 09:06:51;;;;;;;5.32;1.05;;;16.60;99.90;;;;;;4985596;28;20214;-74
2022/09/19 09:09:41;;;;;;;5.32;1.30;;;16.60;99.90;;;;;;4999118;28;20296;-75
2022/09/19 09:12:31;;;;;;;5.97;1.30;;;16.50;99.90;;;;;;5000831;28;20301;-73
2022/09/19 09:15:21;;;;;;;7.60;1.52;;;16.30;99.90;;;;;;5005210;28;20837;-73
2022/09/19 09:18:36;;;;;;;5.20;1.30;;;16.30;99.90;;;;;;5002882;28;20411;-74
2022/09/19 09:21:39;;;;;;;8.65;1.40;;;16.30;99.90;;;;;;4987467;28;20312;-75
2022/09/19 09:24:14;;;;;;;7.13;1.08;;;16.30;99.90;;;;;;5000145;28;20203;-74
2022/09/19 09:27:01;;;;;;;2.75;1.02;;;16.40;99.90;;;;;;5004330;28;20242;-76
2022/09/19 09:29:37;;;;;;;6.13;1.70;;;16.80;99.90;;;;;;5005259;28;20244;-73
2022/09/19 09:32:25;;;;;;;3.60;0.82;;;17.00;99.90;;;;;;5001599;28;20304;-74
2022/09/19 09:35:04;;;;;;;6.65;1.48;;;17.10;99.90;;;;;;5001522;28;20246;-75
2022/09/19 09:37:53;;;;;;;2.72;1.00;;;17.20;99.90;;;;;;4965767;28;20207;-73
2022/09/19 09:43:28;;;;;;;8.35;1.20;;;17.50;99.90;;;;;;5000839;28;20207;-75
2022/09/19 09:45:59;;;;;;;7.95;1.25;;;17.80;99.90;;;;;;5004828;28;20225;-73
2022/09/19 09:48:33;;;;;;;6.88;1.42;;;18.00;99.90;;;;;;5000564;28;20360;-73
2022/09/19 09:51:00;;;;;;;5.53;1.02;;;18.10;99.90;;;;;;5002400;28;20237;-74
2022/09/19 09:53:48;;;;;;;2.95;1.27;;;18.10;99.90;;;;;;5003043;28;20334;-74
2022/09/19 09:56:27;;;;;;;4.40;1.25;;;18.20;99.90;;;;;;5002280;28;20645;-73
2022/09/19 09:58:56;;;;;;;4.28;1.05;;;18.20;99.90;;;;;;4998267;28;20244;-74
2022/09/19 10:04:46;;;;;;;6.28;1.20;;;18.10;99.90;;;;;;5001956;28;20260;-72
2022/09/19 10:07:45;;;;;;;5.07;1.15;;;18.10;99.90;;;;;;4999125;28;20296;-73
2022/09/19 10:10:17;;;;;;;5.50;1.40;;;18.10;99.90;;;;;;4998795;28;20277;-75
2022/09/19 10:13:08;;;;;;;6.35;1.35;;;18.00;99.90;;;;;;4999248;28;20270;-74
2022/09/19 10:15:39;;;;;;;6.70;1.17;;;17.90;99.90;;;;;;4976034;28;20298;-74
2022/09/19 10:18:13;;;;;;;9.05;1.75;;;17.90;99.90;;;;;;4997688;28;20211;-74
2022/09/19 10:20:54;;;;;;;8.18;1.30;;;17.90;99.90;;;;;;4996613;28;20226;-74
2022/09/19 10:23:29;;;;;;;3.25;1.00;;;17.90;99.90;;;;;;4994461;28;20207;-73
2022/09/19 10:26:07;;;;;;;3.67;1.20;;;17.90;99.90;;;;;;5001153;28;20218;-74
2022/09/19 10:28:41;;;;;;;9.10;1.50;;;17.90;99.90;;;;;;4999186;28;20241;-73
2022/09/19 10:31:23;;;;;;;6.22;1.10;;;18.00;99.90;;;;;;4996788;28;20246;-74
2022/09/19 10:33:50;;;;;;;5.47;1.10;;;18.30;99.90;;;;;;4996759;28;20203;-74
2022/09/19 10:36:21;;;;;;;5.72;1.30;;;18.50;99.90;;;;;;4998172;28;20245;-74
2022/09/19 10:38:58;;;;;;;5.20;1.60;;;18.60;99.90;;;;;;4962607;28;20251;-74
2022/09/19 10:41:30;;;;;;;7.30;1.60;;;18.60;99.90;;;;;;5000992;28;20247;-74
2022/09/19 10:44:00;;;;;;;4.55;1.48;;;18.40;99.90;;;;;;5000597;28;20742;-74
2022/09/19 10:46:35;;;;;;;6.63;1.10;;;18.10;99.90;;;;;;4977535;28;20309;-74
2022/09/19 10:49:12;;;;;;;5.90;1.38;;;17.80;99.90;;;;;;4998116;28;20222;-74
2022/09/19 10:51:43;;;;;;;5.22;1.33;;;17.30;99.90;;;;;;4998609;28;20229;-74
2022/09/19 10:54:35;;;;;;;4.72;1.17;;;16.90;99.90;;;;;;4993835;28;20293;-73
2022/09/19 10:57:25;;;;;;;3.20;1.00;;;16.60;99.90;;;;;;4997086;28;20298;-74
2022/09/19 10:59:54;;;;;;;6.25;1.50;;;16.30;99.90;;;;;;4996978;28;20218;-75
2022/09/19 11:02:25;;;;;;;6.32;1.20;;;16.20;99.90;;;;;;4994658;28;20729;-76
2022/09/19 11:04:59;;;;;;;4.28;1.30;;;16.20;99.90;;;;;;4997986;28;20280;-75
2022/09/19 11:07:30;;;;;;;5.15;1.10;;;16.20;99.90;;;;;;4978981;28;20203;-74
2022/09/19 11:10:04;;;;;;;5.07;1.10;;;16.20;99.90;;;;;;4980514;28;20727;-76
2022/09/19 11:12:31;;;;;;;3.67;1.00;;;16.20;99.90;;;;;;4982074;28;20234;-74
2022/09/19 11:14:59;;;;;;;5.53;1.20;;;16.10;99.90;;;;;;4996908;28;20269;-74
2022/09/19 11:18:15;;;;;;;6.87;1.20;;;16.10;99.90;;;;;;4999155;28;20223;-75
2022/09/19 11:21:07;;;;;;;4.15;1.10;;;16.00;99.90;;;;;;4896331;28;20211;-75
2022/09/19 11:23:59;;;;;;;3.37;0.97;;;15.90;99.90;;;;;;5000152;28;20203;-74
2022/09/19 11:26:44;;;;;;;5.50;1.55;;;15.80;99.90;;;;;;4996893;28;20667;-73
2022/09/19 11:29:51;;;;;;;5.30;1.10;;;15.80;99.90;;;;;;4994922;28;20270;-74
2022/09/19 11:32:37;;;;;;;2.67;1.00;;;15.80;99.90;;;;;;4993726;28;20237;-74
2022/09/19 11:35:29;;;;;;;7.03;1.27;;;15.80;99.90;;;;;;4999588;28;20195;-74
2022/09/19 11:38:32;;;;;;;8.70;1.53;;;15.80;99.90;;;;;;4998676;28;20248;-74
2022/09/19 11:41:45;;;;;;;4.07;1.13;;;16.00;99.90;;;;;;4997042;28;20223;-75
2022/09/19 11:44:22;;;;;;;4.28;1.05;;;16.40;99.90;;;;;;4993304;28;20207;-74
2022/09/19 11:47:02;;;;;;;4.72;1.00;;;16.70;99.90;;;;;;4982256;28;20268;-73
2022/09/19 11:49:51;;;;;;;3.97;1.23;;;17.00;99.90;;;;;;4999091;28;20767;-72
2022/09/19 11:52:46;;;;;;;4.53;1.23;;;17.30;99.90;;;;;;4974871;28;20247;-74
2022/09/19 11:55:45;;;;;;;2.28;0.80;;;17.60;99.90;;;;;;4998524;28;20206;-74
2022/09/19 11:58:34;;;;;;;2.47;1.10;;;17.90;99.90;;;;;;4975955;28;20203;-74
2022/09/19 12:01:38;;;;;;;3.75;1.00;;;18.20;99.90;;;;;;4994990;28;20219;-73
2022/09/19 12:04:23;;;;;;;3.40;1.30;;;18.40;99.90;;;;;;4992902;28;20215;-73
2022/09/19 12:07:05;;;;;;;2.70;0.93;;;18.50;99.90;;;;;;4993311;28;20660;-75
2022/09/19 12:10:09;;;;;;;2.70;0.70;;;18.50;99.90;;;;;;4999464;28;20309;-74
2022/09/19 12:12:42;;;;;;;2.70;0.90;;;18.60;99.90;;;;;;4999617;28;20252;-74
2022/09/19 12:15:15;;;;;;;2.38;0.75;;;18.70;99.90;;;;;;4997924;28;20246;-75
2022/09/19 12:17:50;;;;;;;2.63;0.80;;;18.60;99.90;;;;;;4991731;28;20607;-73
2022/09/19 12:20:36;;;;;;;3.13;0.80;;;18.40;99.90;;;;;;4999308;28;20252;-75
2022/09/19 12:25:57;;;;;;;3.90;1.08;;;18.50;99.90;;;;;;4995864;28;20199;-73
2022/09/19 12:28:30;;;;;;;6.85;1.20;;;18.50;99.90;;;;;;4997235;28;20222;-75
2022/09/19 12:31:02;;;;;;;6.18;1.30;;;18.20;99.90;;;;;;4994282;28;20243;-73
2022/09/19 12:33:53;;;;;;;4.53;0.93;;;17.90;99.90;;;;;;4995434;28;20208;-74
2022/09/19 12:36:45;;;;;;;5.97;1.20;;;17.60;99.90;;;;;;4996100;28;20749;-73
2022/09/19 12:39:20;;;;;;;4.15;1.00;;;17.30;99.90;;;;;;4978213;28;20888;-72
2022/09/19 12:42:03;;;;;;;2.28;1.17;;;17.00;99.90;;;;;;4993218;28;20223;-74
2022/09/19 12:44:54;;;;;;;3.35;0.95;;;17.00;99.90;;;;;;4991490;28;20231;-73
2022/09/19 12:47:39;;;;;;;3.55;0.77;;;17.00;99.90;;;;;;4992101;28;20227;-74
2022/09/19 12:50:16;;;;;;;4.57;1.10;;;17.00;99.90;;;;;;4994666;28;20222;-75
2022/09/19 12:53:07;;;;;;;2.22;0.90;;;17.10;99.90;;;;;;4982459;28;20297;-73
2022/09/19 12:55:45;;;;;;;4.28;1.00;;;17.20;99.90;;;;;;4966918;28;20227;-73
2022/09/19 12:58:26;;;;;;;2.75;0.77;;;17.20;99.90;;;;;;4988213;28;20207;-74
2022/09/19 13:01:21;;;;;;;6.80;1.17;;;17.20;99.90;;;;;;4990716;28;20241;-74
2022/09/19 13:03:58;;;;;;;5.20;1.15;;;17.20;99.90;;;;;;4993535;28;20640;-73
2022/09/19 13:06:30;;;;;;;5.70;1.02;;;17.30;99.90;;;;;;4965984;28;20222;-74
2022/09/19 13:09:05;;;;;;;3.50;1.17;;;17.30;99.90;;;;;;4989324;28;20211;-74
2022/09/19 13:11:40;;;;;;;6.97;1.15;;;17.30;99.90;;;;;;4988149;28;20203;-73
2022/09/19 13:14:20;;;;;;;4.97;1.20;;;17.30;99.90;;;;;;4988439;28;20264;-74
2022/09/19 13:25:18;;;;;;;5.07;0.98;;;17.60;99.90;;;;;;4992054;28;20207;-73
2022/09/19 13:28:06;;;;;;;5.45;1.10;;;17.40;99.90;;;;;;4992098;28;20207;-73
2022/09/19 13:30:59;;;;;;;7.95;1.20;;;17.40;99.90;;;;;;4992503;28;20376;-73
2022/09/19 13:33:44;;;;;;;6.85;1.40;;;17.60;99.90;;;;;;4997467;28;20234;-74
2022/09/19 13:36:16;;;;;;;4.10;1.15;;;17.70;99.90;;;;;;4996372;28;20218;-72
2022/09/19 13:38:48;;;;;;;6.10;1.38;;;17.70;99.90;;;;;;4993982;28;20211;-72
2022/09/19 13:41:53;;;;;;;5.47;1.08;;;17.70;99.90;;;;;;4970680;28;20207;-73
2022/09/19 13:44:36;;;;;;;5.43;1.27;;;17.90;99.90;;;;;;4910285;29;20305;-72
2022/09/19 13:47:21;;;;;;;5.10;1.10;;;18.00;99.90;;;;;;4987784;28;20306;-74
2022/09/19 13:50:14;;;;;;;6.07;1.10;;;18.20;99.90;;;;;;5001997;28;20301;-73
2022/09/19 13:52:46;;;;;;;4.25;1.00;;;18.10;99.90;;;;;;4989291;28;20675;-72